sensor_id;sensor_type;location;lat;lon;timestamp;pressure;altitude;pressure_sealevel;temperature
41593;BMP180;28026;48.562;14.440;2023-08-30T00:02:19;92954.00;;;19.60
41593;BMP180;28026;48.562;14.440;2023-08-30T00:04:50;92954.00;;;19.60
41593;BMP180;28026;48.562;14.440;2023-08-30T00:07:21;92945.00;;;19.70
41593;BMP180;28026;48.562;14.440;2023-08-30T00:09:51;92946.00;;;19.70
41593;BMP180;28026;48.562;14.440;2023-08-30T00:12:22;92953.00;;;19.70
41593;BMP180;28026;48.562;14.440;2023-08-30T00:14:54;92952.00;;;19.70
41593;BMP180;28026;48.562;14.440;2023-08-30T00:17:25;92942.00;;;19.70
41593;BMP180;28026;48.562;14.440;2023-08-30T00:19:56;92951.00;;;19.70
41593;BMP180;28026;48.562;14.440;2023-08-30T00:22:27;92956.00;;;19.80
41593;BMP180;28026;48.562;14.440;2023-08-30T00:24:58;92953.00;;;19.80
41593;BMP180;28026;48.562;14.440;2023-08-30T00:27:29;92954.00;;;19.80
41593;BMP180;28026;48.562;14.440;2023-08-30T00:29:59;92958.00;;;19.80
41593;BMP180;28026;48.562;14.440;2023-08-30T00:32:30;92955.00;;;19.90
41593;BMP180;28026;48.562;14.440;2023-08-30T00:35:02;92947.00;;;19.90
41593;BMP180;28026;48.562;14.440;2023-08-30T00:37:33;92951.00;;;19.90
41593;BMP180;28026;48.562;14.440;2023-08-30T00:40:04;92948.00;;;19.90
41593;BMP180;28026;48.562;14.440;2023-08-30T00:42:37;92952.00;;;19.90
41593;BMP180;28026;48.562;14.440;2023-08-30T00:45:08;92956.00;;;19.80
41593;BMP180;28026;48.562;14.440;2023-08-30T00:47:39;92953.00;;;19.80
41593;BMP180;28026;48.562;14.440;2023-08-30T00:50:11;92964.00;;;19.80
41593;BMP180;28026;48.562;14.440;2023-08-30T00:52:43;92956.00;;;19.80
41593;BMP180;28026;48.562;14.440;2023-08-30T00:55:15;92954.00;;;19.80
41593;BMP180;28026;48.562;14.440;2023-08-30T00:57:45;92953.00;;;19.80
41593;BMP180;28026;48.562;14.440;2023-08-30T01:00:16;92949.00;;;19.80
41593;BMP180;28026;48.562;14.440;2023-08-30T01:02:47;92957.00;;;19.80
41593;BMP180;28026;48.562;14.440;2023-08-30T01:05:18;92955.00;;;19.80
41593;BMP180;28026;48.562;14.440;2023-08-30T01:07:53;92953.00;;;19.80
41593;BMP180;28026;48.562;14.440;2023-08-30T01:11:04;92954.00;;;19.90
41593;BMP180;28026;48.562;14.440;2023-08-30T01:13:53;92953.00;;;19.90
41593;BMP180;28026;48.562;14.440;2023-08-30T01:16:46;92952.00;;;19.90
41593;BMP180;28026;48.562;14.440;2023-08-30T01:19:53;92950.00;;;19.80
41593;BMP180;28026;48.562;14.440;2023-08-30T01:23:05;92954.00;;;19.80
41593;BMP180;28026;48.562;14.440;2023-08-30T01:28:31;92953.00;;;19.80
41593;BMP180;28026;48.562;14.440;2023-08-30T01:31:07;92955.00;;;19.80
41593;BMP180;28026;48.562;14.440;2023-08-30T01:33:41;92949.00;;;19.80
41593;BMP180;28026;48.562;14.440;2023-08-30T01:36:13;92955.00;;;19.80
41593;BMP180;28026;48.562;14.440;2023-08-30T01:38:45;92951.00;;;19.80
41593;BMP180;28026;48.562;14.440;2023-08-30T01:41:17;92948.00;;;19.80
41593;BMP180;28026;48.562;14.440;2023-08-30T01:43:50;92948.00;;;19.80
41593;BMP180;28026;48.562;14.440;2023-08-30T01:46:24;92960.00;;;19.80
41593;BMP180;28026;48.562;14.440;2023-08-30T01:48:55;92952.00;;;19.80
41593;BMP180;28026;48.562;14.440;2023-08-30T01:51:27;92954.00;;;19.80
41593;BMP180;28026;48.562;14.440;2023-08-30T01:54:00;92956.00;;;19.80
41593;BMP180;28026;48.562;14.440;2023-08-30T01:56:32;92949.00;;;19.90
41593;BMP180;28026;48.562;14.440;2023-08-30T01:59:03;92950.00;;;19.90
41593;BMP180;28026;48.562;14.440;2023-08-30T02:01:34;92952.00;;;19.90
41593;BMP180;28026;48.562;14.440;2023-08-30T02:04:05;92953.00;;;19.90
41593;BMP180;28026;48.562;14.440;2023-08-30T02:06:47;92956.00;;;19.80
41593;BMP180;28026;48.562;14.440;2023-08-30T02:09:34;92964.00;;;19.80
41593;BMP180;28026;48.562;14.440;2023-08-30T02:12:16;92956.00;;;19.80
41593;BMP180;28026;48.562;14.440;2023-08-30T02:14:50;92957.00;;;19.80
41593;BMP180;28026;48.562;14.440;2023-08-30T02:17:21;92961.00;;;19.80
41593;BMP180;28026;48.562;14.440;2023-08-30T02:19:53;92958.00;;;19.80
41593;BMP180;28026;48.562;14.440;2023-08-30T02:22:24;92960.00;;;19.80
41593;BMP180;28026;48.562;14.440;2023-08-30T02:24:55;92963.00;;;19.80
41593;BMP180;28026;48.562;14.440;2023-08-30T02:27:26;92966.00;;;19.80
41593;BMP180;28026;48.562;14.440;2023-08-30T02:29:57;92960.00;;;19.70
41593;BMP180;28026;48.562;14.440;2023-08-30T02:32:28;92961.00;;;19.70
41593;BMP180;28026;48.562;14.440;2023-08-30T02:34:59;92963.00;;;19.80
41593;BMP180;28026;48.562;14.440;2023-08-30T02:37:30;92965.00;;;19.80
41593;BMP180;28026;48.562;14.440;2023-08-30T02:40:01;92967.00;;;19.70
41593;BMP180;28026;48.562;14.440;2023-08-30T02:42:33;92963.00;;;19.70
41593;BMP180;28026;48.562;14.440;2023-08-30T02:45:04;92956.00;;;19.70
41593;BMP180;28026;48.562;14.440;2023-08-30T02:47:35;92957.00;;;19.70
41593;BMP180;28026;48.562;14.440;2023-08-30T02:50:07;92953.00;;;19.70
41593;BMP180;28026;48.562;14.440;2023-08-30T02:52:38;92953.00;;;19.70
41593;BMP180;28026;48.562;14.440;2023-08-30T02:55:09;92956.00;;;19.70
41593;BMP180;28026;48.562;14.440;2023-08-30T02:57:39;92955.00;;;19.70
41593;BMP180;28026;48.562;14.440;2023-08-30T03:00:11;92948.00;;;19.70
41593;BMP180;28026;48.562;14.440;2023-08-30T03:02:43;92955.00;;;19.80
41593;BMP180;28026;48.562;14.440;2023-08-30T03:05:14;92958.00;;;19.80
41593;BMP180;28026;48.562;14.440;2023-08-30T03:07:45;92962.00;;;19.80
41593;BMP180;28026;48.562;14.440;2023-08-30T03:10:16;92961.00;;;19.80
41593;BMP180;28026;48.562;14.440;2023-08-30T03:12:47;92957.00;;;19.80
41593;BMP180;28026;48.562;14.440;2023-08-30T03:15:18;92956.00;;;19.80
41593;BMP180;28026;48.562;14.440;2023-08-30T03:17:49;92960.00;;;19.90
41593;BMP180;28026;48.562;14.440;2023-08-30T03:20:20;92963.00;;;19.90
41593;BMP180;28026;48.562;14.440;2023-08-30T03:22:51;92962.00;;;19.80
41593;BMP180;28026;48.562;14.440;2023-08-30T03:25:22;92968.00;;;19.80
41593;BMP180;28026;48.562;14.440;2023-08-30T03:27:52;92967.00;;;19.80
41593;BMP180;28026;48.562;14.440;2023-08-30T03:30:24;92971.00;;;19.80
41593;BMP180;28026;48.562;14.440;2023-08-30T03:32:55;92965.00;;;19.90
41593;BMP180;28026;48.562;14.440;2023-08-30T03:35:25;92969.00;;;19.90
41593;BMP180;28026;48.562;14.440;2023-08-30T03:37:56;92965.00;;;19.80
41593;BMP180;28026;48.562;14.440;2023-08-30T03:40:27;92966.00;;;19.90
41593;BMP180;28026;48.562;14.440;2023-08-30T03:43:00;92975.00;;;19.90
41593;BMP180;28026;48.562;14.440;2023-08-30T03:45:36;92968.00;;;19.90
41593;BMP180;28026;48.562;14.440;2023-08-30T03:48:07;92970.00;;;19.80
41593;BMP180;28026;48.562;14.440;2023-08-30T03:50:38;92971.00;;;19.70
41593;BMP180;28026;48.562;14.440;2023-08-30T03:53:08;92971.00;;;19.70
41593;BMP180;28026;48.562;14.440;2023-08-30T03:55:41;92970.00;;;19.70
41593;BMP180;28026;48.562;14.440;2023-08-30T03:58:12;92971.00;;;19.70
41593;BMP180;28026;48.562;14.440;2023-08-30T04:00:43;92968.00;;;19.70
41593;BMP180;28026;48.562;14.440;2023-08-30T04:03:15;92973.00;;;19.70
41593;BMP180;28026;48.562;14.440;2023-08-30T04:05:46;92970.00;;;19.70
41593;BMP180;28026;48.562;14.440;2023-08-30T04:08:17;92973.00;;;19.70
41593;BMP180;28026;48.562;14.440;2023-08-30T04:10:47;92970.00;;;19.70
41593;BMP180;28026;48.562;14.440;2023-08-30T04:13:19;92976.00;;;19.80
41593;BMP180;28026;48.562;14.440;2023-08-30T04:15:51;92982.00;;;19.80
41593;BMP180;28026;48.562;14.440;2023-08-30T04:18:22;92979.00;;;19.80
41593;BMP180;28026;48.562;14.440;2023-08-30T04:20:53;92975.00;;;19.80
41593;BMP180;28026;48.562;14.440;2023-08-30T04:23:24;92975.00;;;19.80
41593;BMP180;28026;48.562;14.440;2023-08-30T04:25:55;92967.00;;;19.80
41593;BMP180;28026;48.562;14.440;2023-08-30T04:28:26;92966.00;;;19.80
41593;BMP180;28026;48.562;14.440;2023-08-30T04:30:57;92971.00;;;19.80
41593;BMP180;28026;48.562;14.440;2023-08-30T04:33:28;92975.00;;;19.80
41593;BMP180;28026;48.562;14.440;2023-08-30T04:35:59;92972.00;;;19.90
41593;BMP180;28026;48.562;14.440;2023-08-30T04:38:31;92963.00;;;19.90
41593;BMP180;28026;48.562;14.440;2023-08-30T04:41:02;92962.00;;;19.90
41593;BMP180;28026;48.562;14.440;2023-08-30T04:43:33;92967.00;;;19.90
41593;BMP180;28026;48.562;14.440;2023-08-30T04:46:04;92972.00;;;19.90
41593;BMP180;28026;48.562;14.440;2023-08-30T04:48:35;92977.00;;;19.90
41593;BMP180;28026;48.562;14.440;2023-08-30T04:51:05;92978.00;;;20.00
41593;BMP180;28026;48.562;14.440;2023-08-30T04:53:36;92975.00;;;20.00
41593;BMP180;28026;48.562;14.440;2023-08-30T04:56:14;92973.00;;;20.00
41593;BMP180;28026;48.562;14.440;2023-08-30T04:58:45;92977.00;;;20.00
41593;BMP180;28026;48.562;14.440;2023-08-30T05:01:16;92977.00;;;20.00
41593;BMP180;28026;48.562;14.440;2023-08-30T05:03:47;92976.00;;;20.00
41593;BMP180;28026;48.562;14.440;2023-08-30T05:06:18;92973.00;;;20.10
41593;BMP180;28026;48.562;14.440;2023-08-30T05:08:49;92965.00;;;20.10
41593;BMP180;28026;48.562;14.440;2023-08-30T05:11:19;92971.00;;;20.10
41593;BMP180;28026;48.562;14.440;2023-08-30T05:13:50;92978.00;;;20.10
41593;BMP180;28026;48.562;14.440;2023-08-30T05:16:21;92975.00;;;20.10
41593;BMP180;28026;48.562;14.440;2023-08-30T05:18:52;92973.00;;;20.20
41593;BMP180;28026;48.562;14.440;2023-08-30T05:21:23;92969.00;;;20.20
41593;BMP180;28026;48.562;14.440;2023-08-30T05:23:54;92978.00;;;20.20
41593;BMP180;28026;48.562;14.440;2023-08-30T05:26:24;92989.00;;;20.20
41593;BMP180;28026;48.562;14.440;2023-08-30T05:28:55;92977.00;;;20.20
41593;BMP180;28026;48.562;14.440;2023-08-30T05:31:26;92983.00;;;20.20
41593;BMP180;28026;48.562;14.440;2023-08-30T05:33:57;92981.00;;;20.30
41593;BMP180;28026;48.562;14.440;2023-08-30T05:36:28;92977.00;;;20.30
41593;BMP180;28026;48.562;14.440;2023-08-30T05:38:59;92979.00;;;20.40
41593;BMP180;28026;48.562;14.440;2023-08-30T05:41:30;92987.00;;;20.40
41593;BMP180;28026;48.562;14.440;2023-08-30T05:44:01;92982.00;;;20.40
41593;BMP180;28026;48.562;14.440;2023-08-30T05:46:32;92976.00;;;20.40
41593;BMP180;28026;48.562;14.440;2023-08-30T05:49:03;92975.00;;;20.40
41593;BMP180;28026;48.562;14.440;2023-08-30T05:51:34;92974.00;;;20.40
41593;BMP180;28026;48.562;14.440;2023-08-30T05:54:05;92974.00;;;20.40
41593;BMP180;28026;48.562;14.440;2023-08-30T05:56:36;92965.00;;;20.50
41593;BMP180;28026;48.562;14.440;2023-08-30T05:59:07;92969.00;;;20.40
41593;BMP180;28026;48.562;14.440;2023-08-30T06:01:38;92959.00;;;20.50
41593;BMP180;28026;48.562;14.440;2023-08-30T06:04:09;92975.00;;;20.50
41593;BMP180;28026;48.562;14.440;2023-08-30T06:06:39;92976.00;;;20.50
41593;BMP180;28026;48.562;14.440;2023-08-30T06:09:10;92978.00;;;20.60
41593;BMP180;28026;48.562;14.440;2023-08-30T06:11:43;92986.00;;;20.60
41593;BMP180;28026;48.562;14.440;2023-08-30T06:14:14;92985.00;;;20.70
41593;BMP180;28026;48.562;14.440;2023-08-30T06:16:45;92983.00;;;20.80
41593;BMP180;28026;48.562;14.440;2023-08-30T06:19:15;92985.00;;;20.80
41593;BMP180;28026;48.562;14.440;2023-08-30T06:21:46;92980.00;;;20.80
41593;BMP180;28026;48.562;14.440;2023-08-30T06:24:17;92984.00;;;20.80
41593;BMP180;28026;48.562;14.440;2023-08-30T06:26:48;92982.00;;;20.90
41593;BMP180;28026;48.562;14.440;2023-08-30T06:29:19;92983.00;;;20.90
41593;BMP180;28026;48.562;14.440;2023-08-30T06:31:50;92983.00;;;21.00
41593;BMP180;28026;48.562;14.440;2023-08-30T06:34:20;92984.00;;;21.10
41593;BMP180;28026;48.562;14.440;2023-08-30T06:36:51;92982.00;;;21.10
41593;BMP180;28026;48.562;14.440;2023-08-30T06:39:22;92987.00;;;21.20
41593;BMP180;28026;48.562;14.440;2023-08-30T06:41:53;92984.00;;;21.20
41593;BMP180;28026;48.562;14.440;2023-08-30T06:44:24;92995.00;;;21.20
41593;BMP180;28026;48.562;14.440;2023-08-30T06:46:58;92992.00;;;21.10
41593;BMP180;28026;48.562;14.440;2023-08-30T06:49:29;92986.00;;;21.10
41593;BMP180;28026;48.562;14.440;2023-08-30T06:52:02;92988.00;;;21.20
41593;BMP180;28026;48.562;14.440;2023-08-30T06:54:34;93001.00;;;21.20
41593;BMP180;28026;48.562;14.440;2023-08-30T06:57:06;92994.00;;;21.20
41593;BMP180;28026;48.562;14.440;2023-08-30T06:59:37;92996.00;;;21.20
41593;BMP180;28026;48.562;14.440;2023-08-30T07:02:08;93001.00;;;21.30
41593;BMP180;28026;48.562;14.440;2023-08-30T07:04:40;93006.00;;;21.40
41593;BMP180;28026;48.562;14.440;2023-08-30T07:07:12;93002.00;;;21.30
41593;BMP180;28026;48.562;14.440;2023-08-30T07:09:43;93002.00;;;21.40
41593;BMP180;28026;48.562;14.440;2023-08-30T07:12:14;93003.00;;;21.40
41593;BMP180;28026;48.562;14.440;2023-08-30T07:14:45;93001.00;;;21.50
41593;BMP180;28026;48.562;14.440;2023-08-30T07:17:16;93010.00;;;21.50
41593;BMP180;28026;48.562;14.440;2023-08-30T07:19:48;93009.00;;;21.50
41593;BMP180;28026;48.562;14.440;2023-08-30T07:22:20;93015.00;;;21.50
41593;BMP180;28026;48.562;14.440;2023-08-30T07:24:50;93015.00;;;21.50
41593;BMP180;28026;48.562;14.440;2023-08-30T07:27:21;93017.00;;;21.50
41593;BMP180;28026;48.562;14.440;2023-08-30T07:29:52;93017.00;;;21.50
41593;BMP180;28026;48.562;14.440;2023-08-30T07:32:23;93025.00;;;21.50
41593;BMP180;28026;48.562;14.440;2023-08-30T07:34:54;93025.00;;;21.50
41593;BMP180;28026;48.562;14.440;2023-08-30T07:37:25;93022.00;;;21.50
41593;BMP180;28026;48.562;14.440;2023-08-30T07:39:56;93020.00;;;21.50
41593;BMP180;28026;48.562;14.440;2023-08-30T07:42:27;93023.00;;;21.50
41593;BMP180;28026;48.562;14.440;2023-08-30T07:44:58;93023.00;;;21.50
41593;BMP180;28026;48.562;14.440;2023-08-30T07:47:29;93029.00;;;21.60
41593;BMP180;28026;48.562;14.440;2023-08-30T07:50:00;93029.00;;;21.60
41593;BMP180;28026;48.562;14.440;2023-08-30T07:52:31;93031.00;;;21.60
41593;BMP180;28026;48.562;14.440;2023-08-30T07:55:03;93048.00;;;21.50
41593;BMP180;28026;48.562;14.440;2023-08-30T07:57:34;93039.00;;;21.50
41593;BMP180;28026;48.562;14.440;2023-08-30T08:00:07;93038.00;;;21.50
41593;BMP180;28026;48.562;14.440;2023-08-30T08:02:40;93040.00;;;21.50
41593;BMP180;28026;48.562;14.440;2023-08-30T08:05:11;93045.00;;;21.60
41593;BMP180;28026;48.562;14.440;2023-08-30T08:07:43;93048.00;;;21.60
41593;BMP180;28026;48.562;14.440;2023-08-30T08:10:13;93051.00;;;21.60
41593;BMP180;28026;48.562;14.440;2023-08-30T08:12:44;93051.00;;;21.60
41593;BMP180;28026;48.562;14.440;2023-08-30T08:15:15;93055.00;;;21.50
41593;BMP180;28026;48.562;14.440;2023-08-30T08:17:46;93054.00;;;21.50
41593;BMP180;28026;48.562;14.440;2023-08-30T08:20:17;93056.00;;;21.50
41593;BMP180;28026;48.562;14.440;2023-08-30T08:22:48;93062.00;;;21.50
41593;BMP180;28026;48.562;14.440;2023-08-30T08:25:19;93060.00;;;21.60
41593;BMP180;28026;48.562;14.440;2023-08-30T08:27:51;93062.00;;;21.60
41593;BMP180;28026;48.562;14.440;2023-08-30T08:30:22;93063.00;;;21.60
41593;BMP180;28026;48.562;14.440;2023-08-30T08:32:53;93064.00;;;21.70
41593;BMP180;28026;48.562;14.440;2023-08-30T08:35:25;93072.00;;;21.70
41593;BMP180;28026;48.562;14.440;2023-08-30T08:37:56;93067.00;;;21.70
41593;BMP180;28026;48.562;14.440;2023-08-30T08:40:28;93075.00;;;21.80
41593;BMP180;28026;48.562;14.440;2023-08-30T08:42:59;93076.00;;;21.90
41593;BMP180;28026;48.562;14.440;2023-08-30T08:45:34;93082.00;;;21.90
41593;BMP180;28026;48.562;14.440;2023-08-30T08:48:06;93085.00;;;22.00
41593;BMP180;28026;48.562;14.440;2023-08-30T08:50:38;93078.00;;;22.00
41593;BMP180;28026;48.562;14.440;2023-08-30T08:53:10;93087.00;;;21.90
41593;BMP180;28026;48.562;14.440;2023-08-30T08:55:43;93088.00;;;21.90
41593;BMP180;28026;48.562;14.440;2023-08-30T08:58:16;93091.00;;;21.80
41593;BMP180;28026;48.562;14.440;2023-08-30T09:00:47;93089.00;;;21.70
41593;BMP180;28026;48.562;14.440;2023-08-30T09:03:18;93100.00;;;21.70
41593;BMP180;28026;48.562;14.440;2023-08-30T09:05:50;93104.00;;;21.70
41593;BMP180;28026;48.562;14.440;2023-08-30T09:08:22;93103.00;;;21.70
41593;BMP180;28026;48.562;14.440;2023-08-30T09:10:54;93100.00;;;21.60
41593;BMP180;28026;48.562;14.440;2023-08-30T09:13:25;93108.00;;;21.60
41593;BMP180;28026;48.562;14.440;2023-08-30T09:15:56;93102.00;;;21.60
41593;BMP180;28026;48.562;14.440;2023-08-30T09:18:27;93099.00;;;21.60
41593;BMP180;28026;48.562;14.440;2023-08-30T09:21:10;93100.00;;;21.60
41593;BMP180;28026;48.562;14.440;2023-08-30T09:23:41;93098.00;;;21.60
41593;BMP180;28026;48.562;14.440;2023-08-30T09:26:13;93104.00;;;21.60
41593;BMP180;28026;48.562;14.440;2023-08-30T09:28:44;93104.00;;;21.60
41593;BMP180;28026;48.562;14.440;2023-08-30T09:31:19;93105.00;;;21.60
41593;BMP180;28026;48.562;14.440;2023-08-30T09:33:50;93102.00;;;21.60
41593;BMP180;28026;48.562;14.440;2023-08-30T09:36:24;93106.00;;;21.60
41593;BMP180;28026;48.562;14.440;2023-08-30T09:38:54;93101.00;;;21.60
41593;BMP180;28026;48.562;14.440;2023-08-30T09:41:28;93108.00;;;21.70
41593;BMP180;28026;48.562;14.440;2023-08-30T09:44:06;93105.00;;;21.70
41593;BMP180;28026;48.562;14.440;2023-08-30T09:46:45;93105.00;;;21.70
41593;BMP180;28026;48.562;14.440;2023-08-30T09:49:26;93105.00;;;21.80
41593;BMP180;28026;48.562;14.440;2023-08-30T09:51:59;93095.00;;;21.80
41593;BMP180;28026;48.562;14.440;2023-08-30T09:54:37;93098.00;;;21.90
41593;BMP180;28026;48.562;14.440;2023-08-30T09:57:13;93100.00;;;21.90
41593;BMP180;28026;48.562;14.440;2023-08-30T09:59:45;93102.00;;;22.00
41593;BMP180;28026;48.562;14.440;2023-08-30T10:02:18;93096.00;;;22.20
41593;BMP180;28026;48.562;14.440;2023-08-30T10:04:50;93092.00;;;22.30
41593;BMP180;28026;48.562;14.440;2023-08-30T10:07:23;93091.00;;;22.40
41593;BMP180;28026;48.562;14.440;2023-08-30T10:09:58;93091.00;;;22.50
41593;BMP180;28026;48.562;14.440;2023-08-30T10:12:31;93088.00;;;22.60
41593;BMP180;28026;48.562;14.440;2023-08-30T10:15:03;93080.00;;;22.60
41593;BMP180;28026;48.562;14.440;2023-08-30T10:17:38;93077.00;;;22.70
41593;BMP180;28026;48.562;14.440;2023-08-30T10:20:15;93083.00;;;22.80
41593;BMP180;28026;48.562;14.440;2023-08-30T10:22:48;93085.00;;;22.90
41593;BMP180;28026;48.562;14.440;2023-08-30T10:25:29;93073.00;;;22.90
41593;BMP180;28026;48.562;14.440;2023-08-30T10:28:04;93075.00;;;23.00
41593;BMP180;28026;48.562;14.440;2023-08-30T10:30:35;93075.00;;;23.10
41593;BMP180;28026;48.562;14.440;2023-08-30T10:33:13;93070.00;;;23.20
41593;BMP180;28026;48.562;14.440;2023-08-30T10:35:49;93076.00;;;23.30
41593;BMP180;28026;48.562;14.440;2023-08-30T10:38:27;93072.00;;;23.40
41593;BMP180;28026;48.562;14.440;2023-08-30T10:41:08;93073.00;;;23.50
41593;BMP180;28026;48.562;14.440;2023-08-30T10:43:40;93066.00;;;23.60
41593;BMP180;28026;48.562;14.440;2023-08-30T10:46:10;93065.00;;;23.60
41593;BMP180;28026;48.562;14.440;2023-08-30T10:48:41;93072.00;;;23.80
41593;BMP180;28026;48.562;14.440;2023-08-30T10:51:41;93072.00;;;24.00
41593;BMP180;28026;48.562;14.440;2023-08-30T10:54:16;93070.00;;;24.10
41593;BMP180;28026;48.562;14.440;2023-08-30T10:56:55;93069.00;;;24.20
41593;BMP180;28026;48.562;14.440;2023-08-30T10:59:28;93073.00;;;24.20
41593;BMP180;28026;48.562;14.440;2023-08-30T11:02:03;93063.00;;;24.10
41593;BMP180;28026;48.562;14.440;2023-08-30T11:04:40;93066.00;;;24.10
41593;BMP180;28026;48.562;14.440;2023-08-30T11:07:12;93069.00;;;24.10
41593;BMP180;28026;48.562;14.440;2023-08-30T11:09:44;93066.00;;;24.20
41593;BMP180;28026;48.562;14.440;2023-08-30T11:12:18;93062.00;;;24.30
41593;BMP180;28026;48.562;14.440;2023-08-30T11:14:53;93064.00;;;24.40
41593;BMP180;28026;48.562;14.440;2023-08-30T11:17:27;93067.00;;;24.50
41593;BMP180;28026;48.562;14.440;2023-08-30T11:20:09;93062.00;;;24.50
41593;BMP180;28026;48.562;14.440;2023-08-30T11:22:48;93062.00;;;24.70
41593;BMP180;28026;48.562;14.440;2023-08-30T11:25:19;93066.00;;;25.00
41593;BMP180;28026;48.562;14.440;2023-08-30T11:28:01;93064.00;;;25.20
41593;BMP180;28026;48.562;14.440;2023-08-30T11:30:40;93065.00;;;25.40
41593;BMP180;28026;48.562;14.440;2023-08-30T11:33:11;93054.00;;;25.60
41593;BMP180;28026;48.562;14.440;2023-08-30T11:35:42;93064.00;;;25.80
41593;BMP180;28026;48.562;14.440;2023-08-30T11:38:13;93058.00;;;25.90
41593;BMP180;28026;48.562;14.440;2023-08-30T11:40:45;93055.00;;;26.00
41593;BMP180;28026;48.562;14.440;2023-08-30T11:43:16;93053.00;;;26.00
41593;BMP180;28026;48.562;14.440;2023-08-30T11:45:56;93058.00;;;26.10
41593;BMP180;28026;48.562;14.440;2023-08-30T11:48:28;93058.00;;;26.10
41593;BMP180;28026;48.562;14.440;2023-08-30T11:51:00;93066.00;;;26.00
41593;BMP180;28026;48.562;14.440;2023-08-30T11:53:32;93066.00;;;26.00
41593;BMP180;28026;48.562;14.440;2023-08-30T11:56:05;93060.00;;;25.80
41593;BMP180;28026;48.562;14.440;2023-08-30T11:58:37;93063.00;;;25.70
41593;BMP180;28026;48.562;14.440;2023-08-30T12:01:08;93066.00;;;25.70
41593;BMP180;28026;48.562;14.440;2023-08-30T12:03:40;93068.00;;;25.60
41593;BMP180;28026;48.562;14.440;2023-08-30T12:06:11;93071.00;;;25.50
41593;BMP180;28026;48.562;14.440;2023-08-30T12:08:43;93062.00;;;25.40
41593;BMP180;28026;48.562;14.440;2023-08-30T12:11:20;93066.00;;;25.30
41593;BMP180;28026;48.562;14.440;2023-08-30T12:13:51;93065.00;;;25.30
41593;BMP180;28026;48.562;14.440;2023-08-30T12:16:22;93065.00;;;25.40
41593;BMP180;28026;48.562;14.440;2023-08-30T12:18:55;93063.00;;;25.40
41593;BMP180;28026;48.562;14.440;2023-08-30T12:21:26;93061.00;;;25.50
41593;BMP180;28026;48.562;14.440;2023-08-30T12:24:02;93059.00;;;25.60
41593;BMP180;28026;48.562;14.440;2023-08-30T12:26:34;93053.00;;;25.50
41593;BMP180;28026;48.562;14.440;2023-08-30T12:29:08;93058.00;;;25.50
41593;BMP180;28026;48.562;14.440;2023-08-30T12:31:39;93060.00;;;25.50
41593;BMP180;28026;48.562;14.440;2023-08-30T12:34:09;93060.00;;;25.50
41593;BMP180;28026;48.562;14.440;2023-08-30T12:36:40;93062.00;;;25.50
41593;BMP180;28026;48.562;14.440;2023-08-30T12:39:12;93062.00;;;25.40
41593;BMP180;28026;48.562;14.440;2023-08-30T12:41:44;93064.00;;;25.00
41593;BMP180;28026;48.562;14.440;2023-08-30T12:44:15;93062.00;;;24.90
41593;BMP180;28026;48.562;14.440;2023-08-30T12:46:46;93054.00;;;24.80
41593;BMP180;28026;48.562;14.440;2023-08-30T12:49:16;93060.00;;;24.80
41593;BMP180;28026;48.562;14.440;2023-08-30T12:51:47;93060.00;;;24.70
41593;BMP180;28026;48.562;14.440;2023-08-30T12:54:18;93062.00;;;24.60
41593;BMP180;28026;48.562;14.440;2023-08-30T12:56:49;93059.00;;;24.40
41593;BMP180;28026;48.562;14.440;2023-08-30T12:59:20;93059.00;;;24.40
41593;BMP180;28026;48.562;14.440;2023-08-30T13:01:51;93063.00;;;24.40
41593;BMP180;28026;48.562;14.440;2023-08-30T13:04:22;93056.00;;;24.40
41593;BMP180;28026;48.562;14.440;2023-08-30T13:06:53;93055.00;;;24.40
41593;BMP180;28026;48.562;14.440;2023-08-30T13:09:24;93051.00;;;24.30
41593;BMP180;28026;48.562;14.440;2023-08-30T13:11:55;93045.00;;;24.20
41593;BMP180;28026;48.562;14.440;2023-08-30T13:14:26;93048.00;;;24.20
41593;BMP180;28026;48.562;14.440;2023-08-30T13:16:56;93046.00;;;24.10
41593;BMP180;28026;48.562;14.440;2023-08-30T13:19:27;93047.00;;;24.10
41593;BMP180;28026;48.562;14.440;2023-08-30T13:21:58;93049.00;;;24.10
41593;BMP180;28026;48.562;14.440;2023-08-30T13:24:29;93043.00;;;24.20
41593;BMP180;28026;48.562;14.440;2023-08-30T13:27:03;93047.00;;;24.20
41593;BMP180;28026;48.562;14.440;2023-08-30T13:29:35;93045.00;;;24.20
41593;BMP180;28026;48.562;14.440;2023-08-30T13:32:06;93048.00;;;24.20
41593;BMP180;28026;48.562;14.440;2023-08-30T13:34:38;93042.00;;;24.20
41593;BMP180;28026;48.562;14.440;2023-08-30T13:37:16;93038.00;;;24.30
41593;BMP180;28026;48.562;14.440;2023-08-30T13:39:47;93040.00;;;24.30
41593;BMP180;28026;48.562;14.440;2023-08-30T13:42:18;93040.00;;;24.40
41593;BMP180;28026;48.562;14.440;2023-08-30T13:44:51;93038.00;;;24.40
41593;BMP180;28026;48.562;14.440;2023-08-30T13:47:22;93040.00;;;24.30
41593;BMP180;28026;48.562;14.440;2023-08-30T13:49:53;93041.00;;;24.40
41593;BMP180;28026;48.562;14.440;2023-08-30T13:52:24;93030.00;;;24.40
41593;BMP180;28026;48.562;14.440;2023-08-30T13:54:55;93033.00;;;24.30
41593;BMP180;28026;48.562;14.440;2023-08-30T13:57:26;93039.00;;;24.30
41593;BMP180;28026;48.562;14.440;2023-08-30T13:59:57;93041.00;;;24.40
41593;BMP180;28026;48.562;14.440;2023-08-30T14:02:28;93041.00;;;24.50
41593;BMP180;28026;48.562;14.440;2023-08-30T14:04:59;93051.00;;;24.60
41593;BMP180;28026;48.562;14.440;2023-08-30T14:07:30;93041.00;;;24.60
41593;BMP180;28026;48.562;14.440;2023-08-30T14:10:01;93046.00;;;24.60
41593;BMP180;28026;48.562;14.440;2023-08-30T14:12:31;93051.00;;;24.60
41593;BMP180;28026;48.562;14.440;2023-08-30T14:15:04;93058.00;;;24.60
41593;BMP180;28026;48.562;14.440;2023-08-30T14:17:35;93054.00;;;24.60
41593;BMP180;28026;48.562;14.440;2023-08-30T14:20:07;93052.00;;;24.60
41593;BMP180;28026;48.562;14.440;2023-08-30T14:22:38;93049.00;;;24.50
41593;BMP180;28026;48.562;14.440;2023-08-30T14:25:09;93047.00;;;24.40
41593;BMP180;28026;48.562;14.440;2023-08-30T14:27:40;93039.00;;;24.30
41593;BMP180;28026;48.562;14.440;2023-08-30T14:30:11;93042.00;;;24.30